Time;durP1;ratioP1;P1;durP2;ratioP2;P2;SDS_P1;SDS_P2;PMS_P1;PMS_P2;Temp;Humidity;BMP_temperature;BMP_pressure;BME280_temperature;BME280_humidity;BME280_pressure;Samples;Min_cycle;Max_cycle;Signal;HPM_P1;HPM_P2
2023/02/16 00:02:00;;;;;;;89.63;36.45;;;;;;;2.79;100.00;102450.34;5206570;28;20108;-74
2023/02/16 00:04:30;;;;;;;95.78;37.30;;;;;;;2.68;100.00;102453.53;5210605;28;20078;-74
2023/02/16 00:07:01;;;;;;;94.05;37.50;;;;;;;2.62;100.00;102453.84;5223335;28;20390;-74
2023/02/16 00:09:31;;;;;;;91.43;36.95;;;;;;;2.61;100.00;102449.50;5223860;28;20472;-73
2023/02/16 00:14:50;;;;;;;106.78;41.80;;;;;;;2.63;100.00;102463.50;5211932;28;20029;-74
2023/02/16 00:17:21;;;;;;;103.28;40.75;;;;;;;2.63;100.00;102455.56;5223348;28;20532;-73
2023/02/16 00:19:51;;;;;;;100.55;38.03;;;;;;;2.59;100.00;102460.16;5223840;28;20025;-74
2023/02/16 00:22:22;;;;;;;89.68;37.78;;;;;;;2.54;100.00;102461.31;5223742;28;20020;-74
2023/02/16 00:24:52;;;;;;;90.80;36.20;;;;;;;2.49;100.00;102469.47;5223923;28;20029;-74
2023/02/16 00:27:22;;;;;;;95.60;37.67;;;;;;;2.39;100.00;102460.25;5223296;28;20029;-74
2023/02/16 00:29:53;;;;;;;93.53;37.85;;;;;;;2.27;100.00;102453.78;5223340;28;20053;-74
2023/02/16 00:32:23;;;;;;;101.57;39.45;;;;;;;2.16;100.00;102460.50;5223857;28;20494;-74
2023/02/16 00:34:54;;;;;;;98.90;39.33;;;;;;;2.06;100.00;102455.66;5223523;28;20104;-74
2023/02/16 00:37:24;;;;;;;101.63;38.67;;;;;;;1.98;100.00;102447.22;5223422;28;20032;-74
2023/02/16 00:39:55;;;;;;;99.35;38.95;;;;;;;1.98;100.00;102454.28;5223322;28;20060;-74
2023/02/16 00:42:30;;;;;;;108.53;40.03;;;;;;;1.97;100.00;102447.28;5223364;28;20112;-74
2023/02/16 00:45:01;;;;;;;101.65;39.95;;;;;;;1.93;100.00;102443.91;5223649;28;20029;-74
2023/02/16 00:47:36;;;;;;;103.43;38.13;;;;;;;1.90;100.00;102454.63;5223378;28;20086;-74
2023/02/16 00:50:15;;;;;;;114.40;42.45;;;;;;;1.96;100.00;102446.44;5223296;28;20025;-74
2023/02/16 00:52:47;;;;;;;96.90;38.00;;;;;;;1.96;100.00;102453.53;5222968;28;20029;-74
2023/02/16 00:55:20;;;;;;;104.20;38.25;;;;;;;1.94;100.00;102444.78;5223582;28;20078;-74
2023/02/16 00:58:10;;;;;;;104.32;38.67;;;;;;;1.90;100.00;102448.50;5222796;28;20033;-73
2023/02/16 01:00:45;;;;;;;95.63;36.92;;;;;;;1.87;100.00;102446.00;5205729;28;20381;-74
2023/02/16 01:03:19;;;;;;;98.20;38.90;;;;;;;1.77;100.00;102438.47;5215899;28;20014;-74
2023/02/16 01:11:06;;;;;;;96.65;36.60;;;;;;;1.69;100.00;102443.25;5217608;28;20032;-74
2023/02/16 01:11:30;;;;;;;107.38;40.70;;;;;;;1.59;100.00;102434.03;5210374;28;20029;-74
2023/02/16 01:14:00;;;;;;;118.22;42.72;;;;;;;1.55;100.00;102428.00;5223139;28;20028;-74
2023/02/16 01:16:36;;;;;;;118.30;43.15;;;;;;;1.53;100.00;102431.66;5205237;28;20427;-74
2023/02/16 01:19:09;;;;;;;111.10;41.58;;;;;;;1.51;100.00;102437.03;5223194;28;20028;-74
2023/02/16 01:21:40;;;;;;;106.97;41.15;;;;;;;1.51;100.00;102431.75;5223174;28;20067;-74
2023/02/16 01:24:10;;;;;;;110.82;43.65;;;;;;;1.54;100.00;102428.06;5222857;28;20059;-74
2023/02/16 01:26:46;;;;;;;107.65;43.22;;;;;;;1.64;100.00;102429.38;5223071;28;20025;-74
2023/02/16 01:29:19;;;;;;;94.97;38.30;;;;;;;1.55;100.00;102425.34;5223378;28;20047;-74
2023/02/16 01:31:49;;;;;;;110.35;39.65;;;;;;;1.44;100.00;102414.41;5223041;28;20032;-74
2023/02/16 01:34:20;;;;;;;118.95;44.13;;;;;;;1.44;100.00;102414.41;5223025;28;20409;-74
2023/02/16 01:36:51;;;;;;;116.88;42.42;;;;;;;1.44;100.00;102405.63;5222981;28;20036;-74
2023/02/16 01:39:21;;;;;;;117.18;43.25;;;;;;;1.44;100.00;102408.25;5223479;28;20182;-74
2023/02/16 01:42:07;;;;;;;111.55;42.33;;;;;;;1.45;100.00;102409.97;5205300;28;20029;-74
2023/02/16 01:44:45;;;;;;;115.30;41.58;;;;;;;1.45;100.00;102402.91;5223496;28;20033;-73
2023/02/16 01:47:36;;;;;;;121.78;42.38;;;;;;;1.46;100.00;102401.13;5223286;28;20040;-74
2023/02/16 01:50:20;;;;;;;113.95;43.03;;;;;;;1.48;100.00;102394.84;5223056;28;20055;-74
2023/02/16 01:52:54;;;;;;;117.22;41.60;;;;;;;1.56;100.00;102397.16;5226671;28;20389;-74
2023/02/16 01:55:29;;;;;;;133.13;48.40;;;;;;;1.60;100.00;102401.34;5226677;28;20082;-74
2023/02/16 01:58:07;;;;;;;140.88;50.28;;;;;;;1.66;100.00;102403.72;5226162;28;20021;-74
2023/02/16 02:00:47;;;;;;;120.63;43.15;;;;;;;1.69;100.00;102397.41;5227342;28;20047;-74
2023/02/16 02:06:31;;;;;;;;;;;;;;;1.83;100.00;102388.84;5226605;28;20036;-74
2023/02/16 02:09:07;;;;;;;133.20;47.53;;;;;;;1.84;100.00;102380.81;5226348;28;19909;-74
2023/02/16 02:12:02;;;;;;;126.57;48.40;;;;;;;1.94;100.00;102383.91;5226270;28;20035;-74
2023/02/16 02:14:37;;;;;;;137.30;48.63;;;;;;;2.00;100.00;102373.84;5226571;28;20135;-74
2023/02/16 02:17:19;;;;;;;122.88;45.90;;;;;;;2.08;100.00;102378.81;5226340;28;20040;-74
2023/02/16 02:23:54;;;;;;;128.52;46.10;;;;;;;2.11;100.00;102360.13;5221749;28;20111;-74
2023/02/16 02:26:54;;;;;;;132.70;47.45;;;;;;;2.21;100.00;102358.75;5208606;28;20025;-74
2023/02/16 02:29:52;;;;;;;123.95;44.28;;;;;;;2.27;100.00;102368.19;5217135;28;20036;-74
2023/02/16 02:32:49;;;;;;;136.00;47.40;;;;;;;2.41;100.00;102362.16;5208802;28;20032;-74
2023/02/16 02:35:39;;;;;;;123.40;48.03;;;;;;;2.57;100.00;102361.34;5226020;28;20029;-74
2023/02/16 02:38:36;;;;;;;110.15;43.55;;;;;;;2.62;100.00;102347.88;5225910;28;20033;-74
2023/02/16 02:41:22;;;;;;;122.72;42.65;;;;;;;2.59;100.00;102348.88;5225676;28;20017;-74
2023/02/16 02:43:59;;;;;;;117.65;43.65;;;;;;;2.60;100.00;102336.47;5195692;28;20721;-74
2023/02/16 02:46:33;;;;;;;107.47;42.35;;;;;;;2.71;100.00;102336.81;5225480;28;20025;-74
2023/02/16 02:49:04;;;;;;;120.28;44.28;;;;;;;2.75;100.00;102338.34;5208747;28;20492;-74
2023/02/16 02:51:39;;;;;;;117.63;45.10;;;;;;;2.80;100.00;102338.09;5225523;28;20143;-74
2023/02/16 03:00:40;;;;;;;112.10;43.38;;;;;;;3.03;100.00;102337.75;5224859;28;20043;-74
2023/02/16 03:03:13;;;;;;;116.03;41.03;;;;;;;3.04;100.00;102341.25;5224548;28;20027;-74
2023/02/16 03:05:50;;;;;;;109.15;43.45;;;;;;;3.10;100.00;102338.28;5225396;28;20037;-74
2023/02/16 03:08:24;;;;;;;110.60;42.15;;;;;;;3.19;100.00;102342.25;5225079;28;20067;-74
2023/02/16 03:13:59;;;;;;;105.80;41.67;;;;;;;3.29;100.00;102346.13;5225406;28;20485;-74
2023/02/16 03:16:36;;;;;;;108.50;40.83;;;;;;;3.29;100.00;102344.31;5209573;28;20024;-74
2023/02/16 03:30:31;;;;;;;114.20;43.28;;;;;;;2.76;100.00;102331.22;5224983;28;20025;-74
2023/02/16 03:33:02;;;;;;;107.97;42.42;;;;;;;2.67;100.00;102329.94;5224899;28;20393;-74
2023/02/16 03:35:34;;;;;;;117.30;42.95;;;;;;;2.59;100.00;102325.03;5207117;28;20023;-74
2023/02/16 03:38:05;;;;;;;106.95;41.88;;;;;;;2.51;100.00;102316.63;5224973;28;20488;-74
2023/02/16 03:40:39;;;;;;;116.32;44.33;;;;;;;2.46;100.00;102317.75;5224771;28;20021;-74
2023/02/16 03:43:10;;;;;;;109.22;43.45;;;;;;;2.39;100.00;102319.88;5225086;28;20020;-74
2023/02/16 03:45:43;;;;;;;110.65;43.83;;;;;;;2.31;100.00;102330.03;5224443;28;20024;-74
2023/02/16 03:48:13;;;;;;;115.97;45.63;;;;;;;2.25;100.00;102317.91;5206527;28;20036;-74
2023/02/16 03:50:44;;;;;;;127.57;46.30;;;;;;;2.26;100.00;102330.25;5224547;28;20485;-74
2023/02/16 03:53:14;;;;;;;122.72;48.78;;;;;;;2.32;100.00;102329.09;5224684;28;20028;-74
2023/02/16 03:55:47;;;;;;;117.97;44.63;;;;;;;2.43;100.00;102325.88;5206884;28;20032;-74
2023/02/16 03:58:20;;;;;;;120.00;44.80;;;;;;;2.45;100.00;102330.16;5223680;28;20100;-74
2023/02/16 04:00:51;;;;;;;121.88;45.67;;;;;;;2.48;100.00;102324.72;5224409;28;20048;-74
2023/02/16 04:03:22;;;;;;;119.00;44.05;;;;;;;2.42;100.00;102325.03;5224717;28;20045;-74
2023/02/16 04:05:52;;;;;;;120.10;43.75;;;;;;;2.41;100.00;102328.63;5224198;28;20037;-74
2023/02/16 04:08:23;;;;;;;115.03;41.70;;;;;;;2.36;100.00;102325.34;5223993;28;20492;-74
2023/02/16 04:10:55;;;;;;;108.43;42.63;;;;;;;2.39;100.00;102326.97;5223887;28;20112;-74
2023/02/16 04:13:26;;;;;;;124.97;46.63;;;;;;;2.52;100.00;102320.97;5224444;28;20119;-74
2023/02/16 04:15:56;;;;;;;124.57;45.08;;;;;;;2.61;100.00;102322.31;5223948;28;20017;-74
2023/02/16 04:18:26;;;;;;;122.95;46.00;;;;;;;2.73;100.00;102329.63;5224047;28;20021;-74
2023/02/16 04:20:57;;;;;;;131.90;47.35;;;;;;;2.92;100.00;102339.28;5223519;28;20222;-74
2023/02/16 04:23:28;;;;;;;116.80;46.38;;;;;;;3.08;100.00;102326.91;5224328;28;20104;-74
2023/02/16 04:25:58;;;;;;;106.85;41.90;;;;;;;3.01;100.00;102326.38;5206307;28;20108;-74
2023/02/16 04:28:29;;;;;;;107.38;42.00;;;;;;;3.01;100.00;102330.81;5223689;28;20020;-74
2023/02/16 04:30:59;;;;;;;106.47;40.28;;;;;;;3.04;100.00;102333.31;5224188;28;20024;-74
2023/02/16 04:33:29;;;;;;;106.88;40.38;;;;;;;3.04;100.00;102333.31;5223621;28;20031;-74
2023/02/16 04:36:00;;;;;;;104.50;41.88;;;;;;;3.08;100.00;102329.56;5223912;28;20021;-74
2023/02/16 04:38:30;;;;;;;109.30;43.40;;;;;;;3.14;100.00;102326.56;5223608;28;20028;-74
2023/02/16 04:41:01;;;;;;;102.90;40.70;;;;;;;3.23;100.00;102322.56;5223770;28;20032;-74
2023/02/16 04:43:32;;;;;;;102.25;39.65;;;;;;;3.27;100.00;102329.44;5206480;28;20033;-75
2023/02/16 04:46:02;;;;;;;107.45;39.85;;;;;;;3.33;100.00;102329.09;5223407;28;20032;-74
2023/02/16 04:48:33;;;;;;;112.97;43.40;;;;;;;3.39;100.00;102334.06;5205804;28;20024;-74
2023/02/16 04:51:04;;;;;;;102.43;41.65;;;;;;;3.44;100.00;102334.66;5223693;28;20055;-74
2023/02/16 04:53:34;;;;;;;102.53;39.47;;;;;;;3.52;100.00;102344.88;5210434;28;20029;-74
2023/02/16 04:56:09;;;;;;;95.88;39.40;;;;;;;3.58;100.00;102348.03;5223558;28;20389;-74
2023/02/16 04:58:40;;;;;;;100.20;39.30;;;;;;;3.63;100.00;102345.13;5223064;28;20043;-74
2023/02/16 05:01:29;;;;;;;89.60;37.58;;;;;;;3.69;100.00;102334.19;5223532;28;20017;-74
2023/02/16 05:04:00;;;;;;;92.95;38.28;;;;;;;3.68;100.00;102334.25;5223751;28;20278;-74
2023/02/16 05:06:30;;;;;;;90.50;37.47;;;;;;;3.69;100.00;102325.34;5223160;28;20023;-74
2023/02/16 05:09:02;;;;;;;88.35;37.35;;;;;;;3.70;100.00;102325.25;5223516;28;20029;-74
2023/02/16 05:17:15;;;;;;;85.45;35.50;;;;;;;3.71;100.00;102308.38;5222690;28;20478;-74
2023/02/16 05:19:49;;;;;;;92.90;37.38;;;;;;;3.69;100.00;102310.28;5223767;28;20032;-74
2023/02/16 05:22:20;;;;;;;90.38;37.03;;;;;;;3.72;100.00;102317.22;5223625;28;20032;-74
2023/02/16 05:24:51;;;;;;;89.55;38.30;;;;;;;3.69;100.00;102320.91;5223758;28;20385;-74
2023/02/16 05:27:24;;;;;;;93.72;39.22;;;;;;;3.75;100.00;102304.63;5225996;28;20032;-74
2023/02/16 05:29:55;;;;;;;94.63;37.58;;;;;;;3.83;100.00;102307.72;5227113;28;20163;-74
2023/02/16 05:32:25;;;;;;;84.28;36.88;;;;;;;3.86;100.00;102296.03;5227356;28;20468;-74
2023/02/16 05:34:56;;;;;;;89.82;39.63;;;;;;;3.88;100.00;102299.50;5227215;28;20531;-74
2023/02/16 05:37:26;;;;;;;89.68;36.67;;;;;;;3.83;100.00;102301.56;5226896;28;20108;-74
2023/02/16 05:39:56;;;;;;;99.10;36.63;;;;;;;3.82;100.00;102300.69;5227084;28;20159;-74
2023/02/16 05:42:27;;;;;;;91.38;37.55;;;;;;;3.96;100.00;102291.91;5226877;28;20044;-74
2023/02/16 05:44:57;;;;;;;95.70;37.17;;;;;;;4.04;100.00;102291.50;5227146;28;20013;-74
2023/02/16 05:47:28;;;;;;;94.78;38.00;;;;;;;4.04;100.00;102310.09;5226746;28;20389;-74
2023/02/16 05:49:58;;;;;;;80.75;34.13;;;;;;;4.12;100.00;102305.19;5226777;28;20036;-74
2023/02/16 05:52:29;;;;;;;90.07;36.17;;;;;;;4.17;100.00;102295.16;5209183;28;20021;-74
2023/02/16 05:54:59;;;;;;;85.13;34.40;;;;;;;4.23;100.00;102284.16;5226403;28;20029;-74
2023/02/16 05:57:32;;;;;;;82.05;34.90;;;;;;;4.32;100.00;102302.22;5226297;28;20108;-74
2023/02/16 06:00:04;;;;;;;80.30;34.67;;;;;;;4.41;100.00;102293.69;5226667;28;20028;-74
2023/02/16 06:02:35;;;;;;;76.32;32.85;;;;;;;4.54;100.00;102295.63;5225286;28;20029;-74
2023/02/16 06:05:05;;;;;;;74.80;34.20;;;;;;;4.57;100.00;102304.28;5197090;28;20036;-74
2023/02/16 06:07:36;;;;;;;84.63;34.92;;;;;;;4.60;100.00;102300.56;5226066;28;20044;-74
2023/02/16 06:10:07;;;;;;;69.80;33.60;;;;;;;4.61;100.00;102305.78;5226623;28;20040;-74
2023/02/16 06:12:37;;;;;;;81.28;34.50;;;;;;;4.66;100.00;102327.63;5226713;28;20028;-74
2023/02/16 06:15:08;;;;;;;83.07;34.75;;;;;;;4.66;100.00;102324.97;5226751;28;20100;-74
2023/02/16 06:17:38;;;;;;;75.88;33.38;;;;;;;4.72;100.00;102318.47;5225676;28;20056;-74
2023/02/16 06:20:09;;;;;;;79.88;33.85;;;;;;;4.80;100.00;102326.81;5226271;28;20063;-74
2023/02/16 06:22:40;;;;;;;80.78;31.67;;;;;;;4.83;100.00;102333.75;5226391;28;20051;-74
2023/02/16 06:25:10;;;;;;;75.55;33.08;;;;;;;4.85;100.00;102330.03;5226532;28;20021;-74
2023/02/16 06:27:41;;;;;;;73.45;31.00;;;;;;;4.88;100.00;102332.53;5226051;28;20070;-74
2023/02/16 06:30:12;;;;;;;77.40;33.30;;;;;;;4.91;100.00;102332.31;5225851;28;20032;-74
2023/02/16 06:32:42;;;;;;;79.00;34.30;;;;;;;4.92;100.00;102336.72;5208703;28;20025;-74
2023/02/16 06:35:13;;;;;;;72.78;32.95;;;;;;;4.97;100.00;102332.91;5225886;28;20036;-74
2023/02/16 06:37:43;;;;;;;77.78;34.35;;;;;;;5.00;100.00;102333.56;5225586;28;20032;-74
2023/02/16 06:40:14;;;;;;;73.97;32.00;;;;;;;5.01;100.00;102337.09;5208152;28;20070;-74
2023/02/16 06:42:45;;;;;;;73.50;31.55;;;;;;;5.03;100.00;102343.19;5226001;28;20070;-74
2023/02/16 06:45:15;;;;;;;74.72;32.80;;;;;;;5.05;100.00;102335.97;5208189;28;20029;-74
2023/02/16 06:47:46;;;;;;;73.75;31.88;;;;;;;5.06;100.00;102340.31;5208080;28;20035;-74
2023/02/16 06:50:16;;;;;;;71.43;31.55;;;;;;;5.04;100.00;102331.59;5208149;28;20025;-74
2023/02/16 06:52:47;;;;;;;74.93;31.27;;;;;;;5.01;100.00;102331.78;5226050;28;20025;-74
2023/02/16 06:55:17;;;;;;;77.82;32.95;;;;;;;5.02;100.00;102329.03;5225470;28;20107;-74
2023/02/16 06:57:48;;;;;;;70.05;31.48;;;;;;;5.03;100.00;102335.22;5224969;28;20104;-74
2023/02/16 07:00:18;;;;;;;78.13;32.25;;;;;;;5.03;100.00;102329.88;5225585;28;20071;-75
2023/02/16 07:02:50;;;;;;;74.55;33.05;;;;;;;5.02;100.00;102325.50;5225595;28;20040;-74
2023/02/16 07:05:20;;;;;;;75.63;32.67;;;;;;;5.04;100.00;102323.63;5207801;28;20478;-75
2023/02/16 07:07:51;;;;;;;77.25;31.90;;;;;;;5.06;100.00;102335.84;5224646;28;20029;-74
2023/02/16 07:10:21;;;;;;;75.97;31.08;;;;;;;5.04;100.00;102336.91;5225378;28;20116;-74
2023/02/16 07:12:52;;;;;;;79.07;32.28;;;;;;;5.02;100.00;102337.00;5225276;28;20398;-74
2023/02/16 07:15:22;;;;;;;72.88;31.70;;;;;;;5.03;100.00;102343.19;5225379;28;20162;-74
2023/02/16 07:17:53;;;;;;;79.13;32.70;;;;;;;5.02;100.00;102352.97;5224819;28;20036;-74
2023/02/16 07:20:23;;;;;;;72.20;31.35;;;;;;;5.05;100.00;102351.91;5224614;28;20085;-74
2023/02/16 07:22:54;;;;;;;82.60;31.77;;;;;;;5.09;100.00;102359.63;5216163;28;20056;-74
2023/02/16 07:25:25;;;;;;;69.97;30.98;;;;;;;5.12;100.00;102355.91;5206242;28;20036;-74
2023/02/16 07:27:55;;;;;;;82.35;35.92;;;;;;;5.15;100.00;102361.03;5223656;28;20485;-75
2023/02/16 07:30:26;;;;;;;83.80;37.47;;;;;;;5.14;100.00;102362.00;5205547;28;20033;-74
2023/02/16 07:32:57;;;;;;;92.97;39.03;;;;;;;5.14;100.00;102367.31;5223443;28;20039;-74
2023/02/16 07:35:27;;;;;;;77.68;35.08;;;;;;;5.15;100.00;102364.56;5205811;28;20076;-74
2023/02/16 07:37:58;;;;;;;87.47;37.67;;;;;;;5.18;100.00;102367.03;5223537;28;20027;-75
2023/02/16 07:40:29;;;;;;;85.90;34.35;;;;;;;5.22;100.00;102372.16;5222976;28;20032;-75
2023/02/16 07:43:02;;;;;;;74.30;32.78;;;;;;;5.23;100.00;102369.41;5223265;28;20021;-75
2023/02/16 07:45:33;;;;;;;71.07;31.48;;;;;;;5.28;100.00;102363.81;5210211;28;20020;-74
2023/02/16 07:48:04;;;;;;;66.93;30.75;;;;;;;5.33;100.00;102375.03;5222936;28;20028;-75
2023/02/16 07:50:36;;;;;;;71.90;31.98;;;;;;;5.36;100.00;102367.69;5222739;28;20040;-74
2023/02/16 07:53:06;;;;;;;67.28;31.42;;;;;;;5.38;100.00;102364.97;5223328;28;20047;-75
2023/02/16 07:55:39;;;;;;;73.60;32.58;;;;;;;5.39;100.00;102361.34;5222912;28;20028;-74
2023/02/16 07:58:10;;;;;;;73.82;32.33;;;;;;;5.43;100.00;102365.53;5222662;28;20086;-74
2023/02/16 08:00:41;;;;;;;71.05;31.83;;;;;;;5.46;100.00;102362.66;5223243;28;20090;-74
2023/02/16 08:03:11;;;;;;;68.70;30.17;;;;;;;5.53;100.00;102364.00;5223055;28;20025;-75
2023/02/16 08:05:42;;;;;;;69.22;30.90;;;;;;;5.60;100.00;102361.78;5205262;28;20025;-74
2023/02/16 08:08:12;;;;;;;72.55;30.88;;;;;;;5.66;100.00;102370.22;5222321;28;20027;-74
2023/02/16 08:10:43;;;;;;;65.97;29.40;;;;;;;5.75;100.00;102376.78;5204985;28;20113;-74
2023/02/16 08:13:13;;;;;;;71.75;31.33;;;;;;;5.83;100.00;102373.66;5222760;28;20481;-74
2023/02/16 08:15:44;;;;;;;67.60;31.55;;;;;;;5.89;100.00;102368.78;5222899;28;20027;-74
2023/02/16 08:18:14;;;;;;;71.07;32.25;;;;;;;5.95;100.00;102364.91;5205082;28;20027;-74
2023/02/16 08:20:44;;;;;;;64.70;29.27;;;;;;;6.02;100.00;102366.19;5221895;28;20032;-74
2023/02/16 08:23:15;;;;;;;66.93;30.48;;;;;;;6.05;100.00;102374.00;5205259;28;20116;-74
2023/02/16 08:25:45;;;;;;;63.33;29.77;;;;;;;6.09;100.00;102372.00;5222645;28;20167;-74
2023/02/16 08:28:16;;;;;;;69.38;29.75;;;;;;;6.08;100.00;102370.28;5204864;28;20017;-75
2023/02/16 08:30:46;;;;;;;72.85;32.00;;;;;;;6.10;100.00;102373.69;5207370;28;20032;-74
2023/02/16 08:33:17;;;;;;;78.15;31.63;;;;;;;6.14;100.00;102376.06;5223008;28;20064;-74
2023/02/16 08:35:48;;;;;;;71.82;29.30;;;;;;;6.19;100.00;102381.94;5191950;28;20572;-74
2023/02/16 08:38:19;;;;;;;69.22;30.25;;;;;;;6.28;100.00;102385.84;5222482;28;20032;-74
2023/02/16 08:40:50;;;;;;;71.95;31.63;;;;;;;6.34;100.00;102380.09;5222503;28;20120;-74
2023/02/16 08:43:21;;;;;;;65.32;29.98;;;;;;;6.42;100.00;102382.22;5222329;28;20123;-74
2023/02/16 08:45:51;;;;;;;68.03;30.60;;;;;;;6.47;100.00;102372.97;5222115;28;20958;-74
2023/02/16 08:48:22;;;;;;;72.15;30.50;;;;;;;6.55;100.00;102391.13;5222497;28;20021;-74
2023/02/16 08:50:52;;;;;;;67.97;29.77;;;;;;;6.59;100.00;102392.66;5222100;28;20118;-75
2023/02/16 08:53:24;;;;;;;69.93;29.88;;;;;;;6.65;100.00;102400.22;5222372;28;20021;-75
2023/02/16 08:55:56;;;;;;;65.10;30.02;;;;;;;6.71;100.00;102401.63;5222242;28;20104;-75
2023/02/16 08:58:27;;;;;;;66.82;30.13;;;;;;;6.73;100.00;102400.56;5203931;28;20017;-74
2023/02/16 09:01:03;;;;;;;69.97;32.42;;;;;;;6.74;100.00;102393.44;5222840;28;20572;-75
2023/02/16 09:03:34;;;;;;;74.60;31.35;;;;;;;6.73;100.00;102405.06;5217272;28;20014;-74
2023/02/16 09:06:05;;;;;;;72.18;31.65;;;;;;;6.72;100.00;102414.00;5204839;28;20036;-74
2023/02/16 09:08:36;;;;;;;68.55;29.90;;;;;;;6.70;100.00;102406.09;5226050;28;20025;-74
2023/02/16 09:11:11;;;;;;;65.53;32.13;;;;;;;6.74;100.00;102393.44;5226119;28;20072;-75
2023/02/16 09:13:43;;;;;;;70.85;30.77;;;;;;;6.73;100.00;102405.91;5226290;28;20038;-75
2023/02/16 09:16:17;;;;;;;74.22;32.97;;;;;;;6.79;100.00;102398.47;5208592;28;20407;-75
2023/02/16 09:18:49;;;;;;;75.57;33.23;;;;;;;6.81;100.00;102402.72;5225517;28;20025;-75
2023/02/16 09:21:24;;;;;;;74.90;32.58;;;;;;;6.87;100.00;102412.09;5226232;28;20334;-75
2023/02/16 09:23:55;;;;;;;77.85;34.10;;;;;;;6.91;100.00;102409.13;5226145;28;20067;-75
2023/02/16 09:26:29;;;;;;;76.93;35.78;;;;;;;6.95;100.00;102413.31;5226227;28;20025;-75
2023/02/16 09:29:00;;;;;;;74.90;33.40;;;;;;;6.95;100.00;102407.97;5225932;28;20432;-75
2023/02/16 09:31:34;;;;;;;69.38;32.45;;;;;;;6.95;100.00;102409.78;5208038;28;20143;-75
2023/02/16 09:34:13;;;;;;;74.57;32.40;;;;;;;6.96;100.00;102404.34;5225758;28;20029;-75
2023/02/16 09:36:44;;;;;;;69.55;32.33;;;;;;;6.97;100.00;102395.38;5225639;28;20025;-75
2023/02/16 09:39:15;;;;;;;96.22;37.45;;;;;;;7.03;100.00;102395.91;5226101;28;20033;-75
2023/02/16 09:42:07;;;;;;;77.60;33.05;;;;;;;7.05;100.00;102397.53;5225362;28;20147;-75
2023/02/16 09:44:55;;;;;;;78.68;33.53;;;;;;;7.08;100.00;102391.09;5225642;28;20108;-75
2023/02/16 09:47:30;;;;;;;76.65;35.33;;;;;;;7.08;100.00;102391.09;5225859;28;20059;-75
2023/02/16 09:50:12;;;;;;;78.85;35.30;;;;;;;7.10;100.00;102397.22;5225408;28;20677;-75
2023/02/16 09:53:20;;;;;;;76.35;34.40;;;;;;;7.16;100.00;102404.78;5226035;28;20385;-75
2023/02/16 09:56:01;;;;;;;80.68;34.60;;;;;;;7.24;100.00;102413.13;5217450;28;20070;-75
2023/02/16 09:59:04;;;;;;;75.93;34.72;;;;;;;7.30;100.00;102420.69;5209775;28;20032;-75
2023/02/16 10:01:40;;;;;;;78.60;34.67;;;;;;;7.44;100.00;102419.75;5225379;28;20049;-75
2023/02/16 10:04:48;;;;;;;68.68;33.47;;;;;;;7.48;100.00;102419.44;5225407;28;20037;-75
2023/02/16 10:07:39;;;;;;;79.68;34.45;;;;;;;7.48;100.00;102415.88;5225039;28;20102;-75
2023/02/16 10:10:15;;;;;;;74.97;33.20;;;;;;;7.49;100.00;102415.78;5215083;28;20133;-75
2023/02/16 10:12:51;;;;;;;75.75;33.13;;;;;;;7.58;100.00;102418.75;5224544;28;20020;-75
2023/02/16 10:15:25;;;;;;;69.85;33.15;;;;;;;7.65;100.00;102404.00;5207585;28;20017;-76
2023/02/16 10:18:07;;;;;;;72.90;32.63;;;;;;;7.78;100.00;102405.72;5224609;28;20025;-76
2023/02/16 10:20:41;;;;;;;77.53;34.40;;;;;;;7.90;100.00;102405.78;5207483;28;20413;-75
2023/02/16 10:23:39;;;;;;;80.00;35.95;;;;;;;7.92;100.00;102406.50;5225527;28;20028;-75
2023/02/16 10:26:21;;;;;;;77.38;35.85;;;;;;;7.83;100.00;102391.13;5212440;28;20029;-75
2023/02/16 10:28:55;;;;;;;72.35;32.85;;;;;;;7.76;100.00;102396.09;5225075;28;20020;-75
2023/02/16 10:31:35;;;;;;;71.35;35.00;;;;;;;7.65;100.00;102372.81;5225014;28;20028;-75
2023/02/16 10:34:17;;;;;;;80.20;35.50;;;;;;;7.61;100.00;102395.34;5224312;28;20028;-75
2023/02/16 10:37:23;;;;;;;78.60;36.83;;;;;;;7.64;100.00;102378.28;5206516;28;20035;-75
2023/02/16 10:40:28;;;;;;;79.07;34.55;;;;;;;7.79;100.00;102393.19;5224251;28;20033;-75
2023/02/16 10:43:16;;;;;;;79.78;37.88;;;;;;;8.03;100.00;102401.22;5225118;28;20555;-75
2023/02/16 10:45:50;;;;;;;75.55;34.58;;;;;;;8.32;100.00;102410.66;5224776;28;20060;-75
2023/02/16 10:48:22;;;;;;;71.50;33.30;;;;;;;8.65;100.00;102414.50;5206555;28;20716;-75
2023/02/16 10:51:11;;;;;;;71.40;32.80;;;;;;;8.74;100.00;102420.97;5223520;28;20032;-75
2023/02/16 10:54:11;;;;;;;69.30;32.65;;;;;;;8.76;100.00;102402.97;5211440;28;20112;-75
2023/02/16 10:57:00;;;;;;;70.30;32.47;;;;;;;8.51;100.00;102410.16;5161926;28;20038;-75
2023/02/16 10:59:47;;;;;;;69.93;31.95;;;;;;;8.53;100.00;102402.03;5175034;28;20501;-75
2023/02/16 11:02:23;;;;;;;74.88;33.53;;;;;;;8.49;100.00;102398.75;5195193;28;20060;-75
2023/02/16 11:04:56;;;;;;;68.53;32.67;;;;;;;8.53;100.00;102384.19;5224064;28;20029;-76
2023/02/16 11:07:29;;;;;;;79.35;34.22;;;;;;;8.50;100.00;102375.53;5223330;28;20470;-75
2023/02/16 11:10:18;;;;;;;78.85;36.17;;;;;;;8.63;100.00;102362.91;5223384;28;20041;-75
2023/02/16 11:12:56;;;;;;;76.65;32.83;;;;;;;8.77;100.00;102375.25;5223779;28;20037;-76
2023/02/16 11:15:28;;;;;;;74.47;32.80;;;;;;;8.80;100.00;102375.88;5223885;28;20021;-76
2023/02/16 11:18:04;;;;;;;68.22;31.95;;;;;;;9.07;100.00;102372.88;5223523;28;20071;-76
2023/02/16 11:20:52;;;;;;;74.10;32.60;;;;;;;9.03;100.00;102359.84;5223099;28;20033;-75
2023/02/16 11:23:25;;;;;;;67.93;31.58;;;;;;;9.06;100.00;102359.63;5223272;28;20029;-75
2023/02/16 11:26:10;;;;;;;70.13;31.35;;;;;;;9.14;100.00;102348.31;5205785;28;20111;-75
2023/02/16 11:28:44;;;;;;;67.83;32.03;;;;;;;9.23;100.00;102347.56;5205560;28;20104;-75
2023/02/16 11:31:31;;;;;;;65.03;32.35;;;;;;;9.37;100.00;102350.00;5223370;28;20086;-75
2023/02/16 11:34:25;;;;;;;60.95;30.15;;;;;;;9.42;100.00;102341.63;5223638;28;20070;-75
2023/02/16 11:37:18;;;;;;;58.53;29.02;;;;;;;9.26;100.00;102336.63;5205663;28;20029;-75
2023/02/16 11:40:16;;;;;;;58.80;28.45;;;;;;;9.20;100.00;102332.63;5223981;28;20094;-75
2023/02/16 11:42:50;;;;;;;64.80;29.35;;;;;;;9.24;100.00;102334.09;5223818;28;20049;-75
2023/02/16 11:45:27;;;;;;;53.63;27.03;;;;;;;9.34;100.00;102340.41;5223808;28;20051;-75
2023/02/16 11:48:02;;;;;;;58.25;28.63;;;;;;;9.44;100.00;102334.28;5223681;28;20045;-75
2023/02/16 11:50:37;;;;;;;60.47;26.70;;;;;;;9.56;100.00;102339.53;5224244;28;20665;-75
2023/02/16 11:53:08;;;;;;;61.10;28.08;;;;;;;9.74;100.00;102321.13;5206407;28;20020;-75
2023/02/16 11:55:44;;;;;;;57.20;28.38;;;;;;;9.86;100.00;102320.13;5224184;28;20401;-75
2023/02/16 11:58:30;;;;;;;56.67;27.02;;;;;;;10.07;100.00;102320.16;5223611;28;20031;-75
2023/02/16 12:01:07;;;;;;;55.55;26.90;;;;;;;10.28;100.00;102314.88;5206212;28;20060;-75
2023/02/16 12:04:21;;;;;;;58.00;26.35;;;;;;;10.45;100.00;102326.03;5224142;28;20044;-75
2023/02/16 12:07:01;;;;;;;52.25;25.55;;;;;;;10.61;100.00;102319.25;5223668;28;20032;-75
2023/02/16 12:09:38;;;;;;;57.35;24.63;;;;;;;10.56;100.00;102324.16;5223795;28;20515;-75
2023/02/16 12:12:27;;;;;;;46.95;24.27;;;;;;;10.70;100.00;102316.75;5206053;28;20032;-75
2023/02/16 12:15:14;;;;;;;47.08;25.02;;;;;;;10.56;100.00;102313.41;5213112;28;20115;-76
2023/02/16 12:18:00;;;;;;;46.50;23.42;;;;;;;10.42;100.00;102313.72;5223613;28;20036;-75
2023/02/16 12:21:10;;;;;;;43.42;23.33;;;;;;;10.44;100.00;102300.16;5223621;28;20028;-76
2023/02/16 12:24:10;;;;;;;47.13;23.48;;;;;;;10.61;100.00;102311.19;5224029;28;20035;-75